sensor_id;sensor_type;location;lat;lon;timestamp;temperature;humidity
25568;DHT22;13455;51.480;7.594;2023-04-03T00:00:42;3.60;99.90
25568;DHT22;13455;51.480;7.594;2023-04-03T00:03:07;3.60;99.90
25568;DHT22;13455;51.480;7.594;2023-04-03T00:05:33;3.50;99.90
25568;DHT22;13455;51.480;7.594;2023-04-03T00:12:53;3.50;99.90
25568;DHT22;13455;51.480;7.594;2023-04-03T00:15:18;3.20;99.90
25568;DHT22;13455;51.480;7.594;2023-04-03T00:37:13;3.20;99.90
25568;DHT22;13455;51.480;7.594;2023-04-03T00:39:39;3.20;99.90
25568;DHT22;13455;51.480;7.594;2023-04-03T00:42:04;4.30;99.90
25568;DHT22;13455;51.480;7.594;2023-04-03T00:47:00;4.00;99.90
25568;DHT22;13455;51.480;7.594;2023-04-03T00:49:26;3.00;99.90
25568;DHT22;13455;51.480;7.594;2023-04-03T00:51:53;3.00;99.90
25568;DHT22;13455;51.480;7.594;2023-04-03T00:54:19;2.90;99.90
25568;DHT22;13455;51.480;7.594;2023-04-03T00:56:45;2.90;99.90
25568;DHT22;13455;51.480;7.594;2023-04-03T00:59:18;2.80;99.90
25568;DHT22;13455;51.480;7.594;2023-04-03T01:01:48;2.90;99.90
25568;DHT22;13455;51.480;7.594;2023-04-03T01:04:31;2.50;99.90
25568;DHT22;13455;51.480;7.594;2023-04-03T01:07:02;2.80;99.90
25568;DHT22;13455;51.480;7.594;2023-04-03T01:09:29;2.70;99.90
25568;DHT22;13455;51.480;7.594;2023-04-03T01:12:20;2.60;99.90
25568;DHT22;13455;51.480;7.594;2023-04-03T01:14:49;2.70;99.90
25568;DHT22;13455;51.480;7.594;2023-04-03T01:25:35;2.60;99.90
25568;DHT22;13455;51.480;7.594;2023-04-03T01:28:02;2.40;99.90
25568;DHT22;13455;51.480;7.594;2023-04-03T01:30:36;2.50;99.90
25568;DHT22;13455;51.480;7.594;2023-04-03T01:33:02;2.50;99.90
25568;DHT22;13455;51.480;7.594;2023-04-03T01:35:28;2.40;99.90
25568;DHT22;13455;51.480;7.594;2023-04-03T01:37:54;2.40;99.90
25568;DHT22;13455;51.480;7.594;2023-04-03T01:40:20;2.20;99.90
25568;DHT22;13455;51.480;7.594;2023-04-03T01:42:45;2.40;99.90
25568;DHT22;13455;51.480;7.594;2023-04-03T01:45:11;2.40;99.90
25568;DHT22;13455;51.480;7.594;2023-04-03T01:47:37;2.40;99.90
25568;DHT22;13455;51.480;7.594;2023-04-03T01:50:03;2.30;99.90
25568;DHT22;13455;51.480;7.594;2023-04-03T01:52:28;2.40;99.90
25568;DHT22;13455;51.480;7.594;2023-04-03T01:54:55;2.30;99.90
25568;DHT22;13455;51.480;7.594;2023-04-03T01:57:21;2.30;99.90
25568;DHT22;13455;51.480;7.594;2023-04-03T01:59:46;2.40;99.90
25568;DHT22;13455;51.480;7.594;2023-04-03T02:02:12;2.90;99.90
25568;DHT22;13455;51.480;7.594;2023-04-03T02:04:40;2.50;99.90
25568;DHT22;13455;51.480;7.594;2023-04-03T02:07:06;2.10;99.90
25568;DHT22;13455;51.480;7.594;2023-04-03T02:09:31;3.00;99.90
25568;DHT22;13455;51.480;7.594;2023-04-03T02:11:57;2.50;99.90
25568;DHT22;13455;51.480;7.594;2023-04-03T02:14:23;2.20;99.90
25568;DHT22;13455;51.480;7.594;2023-04-03T02:16:49;2.20;99.90
25568;DHT22;13455;51.480;7.594;2023-04-03T02:19:15;2.10;99.90
25568;DHT22;13455;51.480;7.594;2023-04-03T02:21:41;2.10;99.90
25568;DHT22;13455;51.480;7.594;2023-04-03T02:24:06;2.30;99.90
25568;DHT22;13455;51.480;7.594;2023-04-03T02:26:32;2.30;99.90
25568;DHT22;13455;51.480;7.594;2023-04-03T02:28:57;1.80;99.90
25568;DHT22;13455;51.480;7.594;2023-04-03T02:31:23;2.00;99.90
25568;DHT22;13455;51.480;7.594;2023-04-03T02:33:49;1.90;99.90
25568;DHT22;13455;51.480;7.594;2023-04-03T02:36:15;1.90;99.90
25568;DHT22;13455;51.480;7.594;2023-04-03T02:38:41;2.00;99.90
25568;DHT22;13455;51.480;7.594;2023-04-03T02:41:09;1.70;99.90
25568;DHT22;13455;51.480;7.594;2023-04-03T02:43:36;1.80;99.90
25568;DHT22;13455;51.480;7.594;2023-04-03T02:46:02;1.90;99.90
25568;DHT22;13455;51.480;7.594;2023-04-03T02:48:28;2.10;99.90
25568;DHT22;13455;51.480;7.594;2023-04-03T02:50:54;1.60;99.90
25568;DHT22;13455;51.480;7.594;2023-04-03T03:03:04;1.80;99.90
25568;DHT22;13455;51.480;7.594;2023-04-03T03:05:30;1.80;99.90
25568;DHT22;13455;51.480;7.594;2023-04-03T03:07:56;1.70;99.90
25568;DHT22;13455;51.480;7.594;2023-04-03T03:10:22;1.60;99.90
25568;DHT22;13455;51.480;7.594;2023-04-03T03:12:48;1.60;99.90
25568;DHT22;13455;51.480;7.594;2023-04-03T03:15:14;1.60;99.90
25568;DHT22;13455;51.480;7.594;2023-04-03T03:17:41;3.20;99.90
25568;DHT22;13455;51.480;7.594;2023-04-03T03:20:08;1.40;99.90
25568;DHT22;13455;51.480;7.594;2023-04-03T03:22:34;1.60;99.90
25568;DHT22;13455;51.480;7.594;2023-04-03T03:25:01;1.50;99.90
25568;DHT22;13455;51.480;7.594;2023-04-03T03:27:27;1.40;99.90
25568;DHT22;13455;51.480;7.594;2023-04-03T03:29:53;2.10;99.90
25568;DHT22;13455;51.480;7.594;2023-04-03T03:39:36;1.50;99.90
25568;DHT22;13455;51.480;7.594;2023-04-03T03:44:28;1.40;99.90
25568;DHT22;13455;51.480;7.594;2023-04-03T03:46:54;1.40;99.90
25568;DHT22;13455;51.480;7.594;2023-04-03T03:49:20;1.40;99.90
25568;DHT22;13455;51.480;7.594;2023-04-03T03:51:46;1.10;99.90
25568;DHT22;13455;51.480;7.594;2023-04-03T03:54:12;1.30;99.90
25568;DHT22;13455;51.480;7.594;2023-04-03T03:56:38;1.20;99.90
25568;DHT22;13455;51.480;7.594;2023-04-03T03:59:05;1.20;99.90
25568;DHT22;13455;51.480;7.594;2023-04-03T04:03:57;1.10;99.90
25568;DHT22;13455;51.480;7.594;2023-04-03T04:06:22;1.50;99.90
25568;DHT22;13455;51.480;7.594;2023-04-03T04:08:48;1.20;99.90
25568;DHT22;13455;51.480;7.594;2023-04-03T04:11:14;2.10;99.90
25568;DHT22;13455;51.480;7.594;2023-04-03T04:18:32;1.20;99.90
25568;DHT22;13455;51.480;7.594;2023-04-03T05:07:16;0.90;99.90
25568;DHT22;13455;51.480;7.594;2023-04-03T05:09:41;0.90;99.90
25568;DHT22;13455;51.480;7.594;2023-04-03T05:12:07;0.50;99.90
25568;DHT22;13455;51.480;7.594;2023-04-03T05:16:59;0.50;99.90
25568;DHT22;13455;51.480;7.594;2023-04-03T05:21:50;0.50;99.90
25568;DHT22;13455;51.480;7.594;2023-04-03T05:26:43;0.60;99.90
25568;DHT22;13455;51.480;7.594;2023-04-03T05:31:35;0.40;99.90
25568;DHT22;13455;51.480;7.594;2023-04-03T07:50:44;4.00;99.90
25568;DHT22;13455;51.480;7.594;2023-04-03T07:53:10;3.10;99.90
25568;DHT22;13455;51.480;7.594;2023-04-03T07:55:36;3.60;99.90
25568;DHT22;13455;51.480;7.594;2023-04-03T07:58:09;3.40;99.90
25568;DHT22;13455;51.480;7.594;2023-04-03T08:00:35;3.50;99.90
25568;DHT22;13455;51.480;7.594;2023-04-03T08:03:00;3.50;99.90
25568;DHT22;13455;51.480;7.594;2023-04-03T08:05:26;4.40;99.90
25568;DHT22;13455;51.480;7.594;2023-04-03T08:07:52;3.50;99.90
25568;DHT22;13455;51.480;7.594;2023-04-03T08:10:18;5.00;99.90
25568;DHT22;13455;51.480;7.594;2023-04-03T08:12:47;3.50;99.90
25568;DHT22;13455;51.480;7.594;2023-04-03T08:15:13;4.20;99.90
25568;DHT22;13455;51.480;7.594;2023-04-03T08:17:39;4.50;99.90
25568;DHT22;13455;51.480;7.594;2023-04-03T08:20:06;5.00;99.90
25568;DHT22;13455;51.480;7.594;2023-04-03T08:22:33;3.90;99.90
25568;DHT22;13455;51.480;7.594;2023-04-03T08:24:59;5.00;99.90
25568;DHT22;13455;51.480;7.594;2023-04-03T08:34:44;4.20;99.90
25568;DHT22;13455;51.480;7.594;2023-04-03T08:39:36;4.60;99.90
25568;DHT22;13455;51.480;7.594;2023-04-03T08:42:07;4.50;99.90
25568;DHT22;13455;51.480;7.594;2023-04-03T08:47:57;4.80;99.90
25568;DHT22;13455;51.480;7.594;2023-04-03T08:55:40;4.80;99.90
25568;DHT22;13455;51.480;7.594;2023-04-03T09:01:00;5.50;99.90
25568;DHT22;13455;51.480;7.594;2023-04-03T09:03:34;6.30;99.90
25568;DHT22;13455;51.480;7.594;2023-04-03T09:06:12;4.50;99.90
25568;DHT22;13455;51.480;7.594;2023-04-03T09:11:49;5.60;99.90
25568;DHT22;13455;51.480;7.594;2023-04-03T09:17:00;5.80;99.90
25568;DHT22;13455;51.480;7.594;2023-04-03T09:22:01;6.20;99.90
25568;DHT22;13455;51.480;7.594;2023-04-03T09:24:28;6.10;99.90
25568;DHT22;13455;51.480;7.594;2023-04-03T09:29:27;6.40;99.90
25568;DHT22;13455;51.480;7.594;2023-04-03T09:31:59;5.60;99.90
25568;DHT22;13455;51.480;7.594;2023-04-03T09:34:37;6.90;99.90
25568;DHT22;13455;51.480;7.594;2023-04-03T09:44:55;6.80;99.90
25568;DHT22;13455;51.480;7.594;2023-04-03T09:47:28;6.90;99.90
25568;DHT22;13455;51.480;7.594;2023-04-03T09:55:21;7.20;99.90
25568;DHT22;13455;51.480;7.594;2023-04-03T10:02:50;7.80;99.90
25568;DHT22;13455;51.480;7.594;2023-04-03T10:05:27;8.70;99.90
25568;DHT22;13455;51.480;7.594;2023-04-03T10:08:11;8.10;99.90
25568;DHT22;13455;51.480;7.594;2023-04-03T10:10:37;8.10;99.90
25568;DHT22;13455;51.480;7.594;2023-04-03T10:13:13;8.20;99.90
25568;DHT22;13455;51.480;7.594;2023-04-03T10:23:32;8.70;99.90
25568;DHT22;13455;51.480;7.594;2023-04-03T10:31:56;9.10;99.90
25568;DHT22;13455;51.480;7.594;2023-04-03T10:34:33;9.40;99.90
25568;DHT22;13455;51.480;7.594;2023-04-03T10:37:54;9.20;92.60
25568;DHT22;13455;51.480;7.594;2023-04-03T10:51:41;9.00;85.60
25568;DHT22;13455;51.480;7.594;2023-04-03T11:06:43;10.00;84.70
25568;DHT22;13455;51.480;7.594;2023-04-03T11:09:27;10.30;86.90
25568;DHT22;13455;51.480;7.594;2023-04-03T11:12:04;10.20;83.60
25568;DHT22;13455;51.480;7.594;2023-04-03T11:14:34;10.20;87.60
25568;DHT22;13455;51.480;7.594;2023-04-03T11:22:51;10.20;82.50
25568;DHT22;13455;51.480;7.594;2023-04-03T11:25:23;10.40;83.20
25568;DHT22;13455;51.480;7.594;2023-04-03T11:30:42;10.70;92.30
25568;DHT22;13455;51.480;7.594;2023-04-03T11:33:43;10.60;79.60
25568;DHT22;13455;51.480;7.594;2023-04-03T11:36:50;10.70;77.70
25568;DHT22;13455;51.480;7.594;2023-04-03T11:39:33;10.90;79.60
25568;DHT22;13455;51.480;7.594;2023-04-03T11:44:48;11.00;94.60
25568;DHT22;13455;51.480;7.594;2023-04-03T11:47:48;11.70;96.10
25568;DHT22;13455;51.480;7.594;2023-04-03T12:08:27;11.60;74.30
25568;DHT22;13455;51.480;7.594;2023-04-03T12:18:56;12.30;73.70
25568;DHT22;13455;51.480;7.594;2023-04-03T12:26:51;12.40;70.30
25568;DHT22;13455;51.480;7.594;2023-04-03T12:40:27;13.00;87.40
25568;DHT22;13455;51.480;7.594;2023-04-03T12:51:18;12.90;69.40
25568;DHT22;13455;51.480;7.594;2023-04-03T12:53:45;13.00;69.60
25568;DHT22;13455;51.480;7.594;2023-04-03T12:58:48;13.80;67.00
25568;DHT22;13455;51.480;7.594;2023-04-03T13:01:18;13.50;87.10
25568;DHT22;13455;51.480;7.594;2023-04-03T13:03:48;13.80;67.20
25568;DHT22;13455;51.480;7.594;2023-04-03T13:06:19;14.00;66.40
25568;DHT22;13455;51.480;7.594;2023-04-03T13:11:40;14.40;62.30
25568;DHT22;13455;51.480;7.594;2023-04-03T13:42:36;14.80;57.20
25568;DHT22;13455;51.480;7.594;2023-04-03T13:47:46;15.60;65.00
25568;DHT22;13455;51.480;7.594;2023-04-03T13:50:19;15.30;55.40
25568;DHT22;13455;51.480;7.594;2023-04-03T14:07:50;16.00;92.70
25568;DHT22;13455;51.480;7.594;2023-04-03T14:37:28;16.70;53.20
25568;DHT22;13455;51.480;7.594;2023-04-03T14:49:44;17.10;59.60
25568;DHT22;13455;51.480;7.594;2023-04-03T14:54:56;17.60;51.10
25568;DHT22;13455;51.480;7.594;2023-04-03T15:04:51;17.10;48.20
25568;DHT22;13455;51.480;7.594;2023-04-03T15:07:17;17.00;49.70
25568;DHT22;13455;51.480;7.594;2023-04-03T15:09:43;16.40;49.20
25568;DHT22;13455;51.480;7.594;2023-04-03T15:12:09;16.30;50.60
25568;DHT22;13455;51.480;7.594;2023-04-03T15:14:35;15.90;50.40
25568;DHT22;13455;51.480;7.594;2023-04-03T15:17:01;16.70;59.40
25568;DHT22;13455;51.480;7.594;2023-04-03T15:19:27;16.50;56.30
25568;DHT22;13455;51.480;7.594;2023-04-03T15:21:53;15.00;49.00
25568;DHT22;13455;51.480;7.594;2023-04-03T15:24:18;15.70;57.00
25568;DHT22;13455;51.480;7.594;2023-04-03T15:26:44;15.60;54.00
25568;DHT22;13455;51.480;7.594;2023-04-03T15:29:10;15.20;60.70
25568;DHT22;13455;51.480;7.594;2023-04-03T15:41:20;13.30;70.30
25568;DHT22;13455;51.480;7.594;2023-04-03T15:43:46;14.40;53.00
25568;DHT22;13455;51.480;7.594;2023-04-03T15:46:12;15.20;51.90
25568;DHT22;13455;51.480;7.594;2023-04-03T15:51:05;18.50;50.30
25568;DHT22;13455;51.480;7.594;2023-04-03T15:55:57;20.40;46.10
25568;DHT22;13455;51.480;7.594;2023-04-03T15:58:23;20.30;42.40
25568;DHT22;13455;51.480;7.594;2023-04-03T16:00:48;20.10;41.50
25568;DHT22;13455;51.480;7.594;2023-04-03T16:03:19;20.40;43.90
25568;DHT22;13455;51.480;7.594;2023-04-03T16:10:38;19.60;46.40
25568;DHT22;13455;51.480;7.594;2023-04-03T16:13:05;19.80;42.00
25568;DHT22;13455;51.480;7.594;2023-04-03T16:15:32;20.20;41.30
25568;DHT22;13455;51.480;7.594;2023-04-03T16:17:58;20.70;41.50
25568;DHT22;13455;51.480;7.594;2023-04-03T16:37:29;20.10;38.70
25568;DHT22;13455;51.480;7.594;2023-04-03T16:39:54;20.40;39.50
25568;DHT22;13455;51.480;7.594;2023-04-03T16:42:20;20.20;39.20
25568;DHT22;13455;51.480;7.594;2023-04-03T16:44:45;20.60;39.50
25568;DHT22;13455;51.480;7.594;2023-04-03T16:47:11;21.00;39.40
25568;DHT22;13455;51.480;7.594;2023-04-03T16:49:39;21.10;38.60
25568;DHT22;13455;51.480;7.594;2023-04-03T16:52:05;21.30;38.60
25568;DHT22;13455;51.480;7.594;2023-04-03T16:54:31;20.20;37.30
25568;DHT22;13455;51.480;7.594;2023-04-03T16:56:57;18.80;38.70
25568;DHT22;13455;51.480;7.594;2023-04-03T16:59:23;17.40;44.00
25568;DHT22;13455;51.480;7.594;2023-04-03T17:01:49;15.90;41.60
25568;DHT22;13455;51.480;7.594;2023-04-03T17:04:15;14.80;43.00
25568;DHT22;13455;51.480;7.594;2023-04-03T17:09:07;12.30;49.00
25568;DHT22;13455;51.480;7.594;2023-04-03T17:18:54;11.30;50.60
25568;DHT22;13455;51.480;7.594;2023-04-03T17:21:20;11.80;69.10
25568;DHT22;13455;51.480;7.594;2023-04-03T17:23:50;12.40;55.70
25568;DHT22;13455;51.480;7.594;2023-04-03T17:26:18;10.40;54.80
25568;DHT22;13455;51.480;7.594;2023-04-03T17:28:43;10.30;84.10
25568;DHT22;13455;51.480;7.594;2023-04-03T17:36:02;9.80;58.60
25568;DHT22;13455;51.480;7.594;2023-04-03T17:38:30;9.50;56.50
25568;DHT22;13455;51.480;7.594;2023-04-03T17:53:11;9.00;58.00
25568;DHT22;13455;51.480;7.594;2023-04-03T17:55:37;10.20;59.10
25568;DHT22;13455;51.480;7.594;2023-04-03T17:58:04;8.80;85.20
25568;DHT22;13455;51.480;7.594;2023-04-03T18:00:30;8.70;92.20
25568;DHT22;13455;51.480;7.594;2023-04-03T18:02:56;9.00;60.50
25568;DHT22;13455;51.480;7.594;2023-04-03T18:17:36;7.80;64.30
25568;DHT22;13455;51.480;7.594;2023-04-03T18:32:17;7.30;68.50
25568;DHT22;13455;51.480;7.594;2023-04-03T18:44:34;6.70;71.20
25568;DHT22;13455;51.480;7.594;2023-04-03T18:47:00;6.70;72.20
25568;DHT22;13455;51.480;7.594;2023-04-03T18:51:55;6.50;71.50
25568;DHT22;13455;51.480;7.594;2023-04-03T18:54:21;6.50;72.50
25568;DHT22;13455;51.480;7.594;2023-04-03T18:56:47;6.30;73.40
25568;DHT22;13455;51.480;7.594;2023-04-03T18:59:13;6.30;73.60
25568;DHT22;13455;51.480;7.594;2023-04-03T19:01:39;6.40;75.00
25568;DHT22;13455;51.480;7.594;2023-04-03T19:04:05;6.30;82.10
25568;DHT22;13455;51.480;7.594;2023-04-03T19:06:33;6.10;75.40
25568;DHT22;13455;51.480;7.594;2023-04-03T19:08:59;6.30;76.10
25568;DHT22;13455;51.480;7.594;2023-04-03T19:21:10;5.80;77.40
25568;DHT22;13455;51.480;7.594;2023-04-03T19:26:07;5.60;79.00
25568;DHT22;13455;51.480;7.594;2023-04-03T19:28:33;5.60;92.20
25568;DHT22;13455;51.480;7.594;2023-04-03T19:31:00;5.60;79.80
25568;DHT22;13455;51.480;7.594;2023-04-03T19:33:26;6.80;81.10
25568;DHT22;13455;51.480;7.594;2023-04-03T19:35:53;5.40;80.60
25568;DHT22;13455;51.480;7.594;2023-04-03T19:38:18;6.90;81.80
25568;DHT22;13455;51.480;7.594;2023-04-03T19:40:44;5.40;80.60
25568;DHT22;13455;51.480;7.594;2023-04-03T19:43:12;5.30;81.80
25568;DHT22;13455;51.480;7.594;2023-04-03T19:45:38;5.20;81.80
25568;DHT22;13455;51.480;7.594;2023-04-03T19:48:04;6.10;82.10
25568;DHT22;13455;51.480;7.594;2023-04-03T20:10:02;5.10;83.10
25568;DHT22;13455;51.480;7.594;2023-04-03T20:17:21;5.00;85.20
25568;DHT22;13455;51.480;7.594;2023-04-03T20:22:13;4.90;84.40
25568;DHT22;13455;51.480;7.594;2023-04-03T20:36:52;4.60;86.20
25568;DHT22;13455;51.480;7.594;2023-04-03T20:39:17;5.30;87.50
25568;DHT22;13455;51.480;7.594;2023-04-03T20:41:48;4.40;88.00
25568;DHT22;13455;51.480;7.594;2023-04-03T20:44:15;4.50;88.10
25568;DHT22;13455;51.480;7.594;2023-04-03T20:46:45;4.40;87.60
25568;DHT22;13455;51.480;7.594;2023-04-03T20:51:37;4.40;87.70
25568;DHT22;13455;51.480;7.594;2023-04-03T20:54:03;5.40;89.20
25568;DHT22;13455;51.480;7.594;2023-04-03T20:56:30;4.30;89.00
25568;DHT22;13455;51.480;7.594;2023-04-03T20:58:58;5.50;89.80
25568;DHT22;13455;51.480;7.594;2023-04-03T21:01:27;4.30;89.60
25568;DHT22;13455;51.480;7.594;2023-04-03T21:04:05;4.90;90.20
25568;DHT22;13455;51.480;7.594;2023-04-03T21:23:04;3.90;91.00
25568;DHT22;13455;51.480;7.594;2023-04-03T21:25:30;3.90;91.70
25568;DHT22;13455;51.480;7.594;2023-04-03T21:27:56;3.90;91.50
25568;DHT22;13455;51.480;7.594;2023-04-03T21:30:22;3.80;91.60
25568;DHT22;13455;51.480;7.594;2023-04-03T21:32:48;3.80;91.70
25568;DHT22;13455;51.480;7.594;2023-04-03T21:35:13;5.40;92.60
25568;DHT22;13455;51.480;7.594;2023-04-03T21:37:39;3.40;96.90
25568;DHT22;13455;51.480;7.594;2023-04-03T21:44:58;3.90;99.90
25568;DHT22;13455;51.480;7.594;2023-04-03T21:49:49;3.70;99.90
25568;DHT22;13455;51.480;7.594;2023-04-03T21:52:15;3.80;99.90
25568;DHT22;13455;51.480;7.594;2023-04-03T21:54:42;3.20;93.60
25568;DHT22;13455;51.480;7.594;2023-04-03T21:57:08;3.20;96.50
25568;DHT22;13455;51.480;7.594;2023-04-03T22:36:15;3.40;94.20
25568;DHT22;13455;51.480;7.594;2023-04-03T22:48:31;3.20;95.30
25568;DHT22;13455;51.480;7.594;2023-04-03T22:50:57;3.20;95.70
25568;DHT22;13455;51.480;7.594;2023-04-03T22:53:27;3.10;95.90
25568;DHT22;13455;51.480;7.594;2023-04-03T22:58:29;3.00;96.00
25568;DHT22;13455;51.480;7.594;2023-04-03T23:03:28;2.90;96.60
25568;DHT22;13455;51.480;7.594;2023-04-03T23:05:54;2.90;96.80
25568;DHT22;13455;51.480;7.594;2023-04-03T23:08:20;2.80;97.00
25568;DHT22;13455;51.480;7.594;2023-04-03T23:10:46;3.30;97.30
25568;DHT22;13455;51.480;7.594;2023-04-03T23:13:11;2.80;97.30
25568;DHT22;13455;51.480;7.594;2023-04-03T23:15:37;2.70;97.40
25568;DHT22;13455;51.480;7.594;2023-04-03T23:18:03;2.70;97.60
25568;DHT22;13455;51.480;7.594;2023-04-03T23:20:28;2.70;97.80
25568;DHT22;13455;51.480;7.594;2023-04-03T23:22:54;3.80;98.30
25568;DHT22;13455;51.480;7.594;2023-04-03T23:25:20;2.60;98.40
25568;DHT22;13455;51.480;7.594;2023-04-03T23:27:50;2.50;98.60
25568;DHT22;13455;51.480;7.594;2023-04-03T23:30:17;2.50;99.10
25568;DHT22;13455;51.480;7.594;2023-04-03T23:37:34;2.50;99.00
25568;DHT22;13455;51.480;7.594;2023-04-03T23:40:00;2.40;99.30
25568;DHT22;13455;51.480;7.594;2023-04-03T23:42:26;2.40;99.40
25568;DHT22;13455;51.480;7.594;2023-04-03T23:44:52;2.40;99.60
25568;DHT22;13455;51.480;7.594;2023-04-03T23:47:18;3.60;99.90
25568;DHT22;13455;51.480;7.594;2023-04-03T23:49:44;3.00;99.90
25568;DHT22;13455;51.480;7.594;2023-04-03T23:52:10;2.30;99.80
25568;DHT22;13455;51.480;7.594;2023-04-03T23:54:36;2.30;99.90
25568;DHT22;13455;51.480;7.594;2023-04-03T23:57:01;2.30;99.90
25568;DHT22;13455;51.480;7.594;2023-04-03T23:59:27;2.30;99.90
